createdAt,value
2018-06-04T00:01:27.663Z,79.55
2018-06-04T00:03:56.317Z,80.16
2018-06-04T00:06:24.990Z,79.94
2018-06-04T00:08:53.610Z,79.31
2018-06-04T00:11:22.272Z,79.43
2018-06-04T00:13:51.208Z,79.70
2018-06-04T00:16:19.860Z,80.04
2018-06-04T00:18:48.548Z,80.36
2018-06-04T00:21:17.255Z,80.66
2018-06-04T00:23:45.849Z,80.96
2018-06-04T00:26:14.542Z,81.33
2018-06-04T00:28:43.201Z,81.35
2018-06-04T00:31:11.868Z,81.82
2018-06-04T00:33:40.461Z,81.76
2018-06-04T00:36:09.169Z,81.79
2018-06-04T00:38:37.827Z,81.67
2018-06-04T00:41:07.185Z,81.15
2018-06-04T00:43:35.800Z,81.57
2018-06-04T00:46:04.504Z,81.40
2018-06-04T00:48:33.219Z,81.59
2018-06-04T00:51:01.863Z,81.20
2018-06-04T00:53:30.573Z,81.18
2018-06-04T00:56:10.332Z,81.42
2018-06-04T00:58:38.987Z,81.42
2018-06-04T01:01:07.574Z,81.41
2018-06-04T01:03:36.220Z,80.47
2018-06-04T01:06:04.818Z,80.73
2018-06-04T01:08:33.561Z,80.45
2018-06-04T01:11:02.226Z,80.34
2018-06-04T01:13:30.897Z,80.91
2018-06-04T01:15:59.483Z,81.07
2018-06-04T01:18:28.177Z,81.17
2018-06-04T01:20:57.105Z,81.42
2018-06-04T01:23:25.755Z,81.51
2018-06-04T01:25:54.316Z,80.94
2018-06-04T01:28:22.956Z,81.00
2018-06-04T01:30:51.622Z,81.44
2018-06-04T01:33:20.285Z,81.14
2018-06-04T01:35:48.878Z,81.09
2018-06-04T01:38:17.457Z,81.42
2018-06-04T01:40:46.005Z,81.68
2018-06-04T01:43:14.617Z,81.73
2018-06-04T01:45:43.213Z,81.62
2018-06-04T01:48:11.913Z,81.87
2018-06-04T01:50:40.606Z,81.70
2018-06-04T01:53:09.317Z,82.04
2018-06-04T01:55:38.196Z,81.65
2018-06-04T01:58:06.862Z,82.01
2018-06-04T02:00:35.570Z,82.06
2018-06-04T02:03:04.250Z,82.01
2018-06-04T02:05:32.923Z,81.75
2018-06-04T02:08:01.597Z,82.07
2018-06-04T02:10:30.230Z,81.96
2018-06-04T02:12:58.918Z,82.20
2018-06-04T02:15:42.842Z,81.80
2018-06-04T02:18:11.521Z,82.10
2018-06-04T02:20:40.196Z,82.34
2018-06-04T02:23:08.878Z,81.95
2018-06-04T02:25:37.628Z,82.69
2018-06-04T02:28:06.344Z,82.49
2018-06-04T02:30:49.816Z,81.88
2018-06-04T02:33:19.062Z,81.52
2018-06-04T02:35:47.657Z,81.44
2018-06-04T02:38:16.279Z,81.50
2018-06-04T02:40:44.943Z,81.76
2018-06-04T02:43:13.557Z,81.91
2018-06-04T02:45:42.212Z,82.18
2018-06-04T02:48:11.654Z,82.14
2018-06-04T02:50:40.322Z,82.21
2018-06-04T02:53:09.047Z,82.32
2018-06-04T02:55:37.618Z,82.73
2018-06-04T02:58:06.239Z,82.52
2018-06-04T03:00:34.833Z,82.18
2018-06-04T03:03:03.411Z,82.19
2018-06-04T03:05:32.161Z,82.81
2018-06-04T03:08:00.910Z,82.35
2018-06-04T03:10:29.602Z,82.32
2018-06-04T03:12:58.200Z,82.62
2018-06-04T03:15:27.400Z,82.78
2018-06-04T03:17:56.004Z,83.00
2018-06-04T03:20:24.566Z,82.54
2018-06-04T03:22:53.222Z,83.19
2018-06-04T03:25:21.815Z,82.94
2018-06-04T03:27:50.415Z,83.34
2018-06-04T03:30:19.009Z,83.06
2018-06-04T03:32:47.746Z,83.43
2018-06-04T03:35:16.356Z,83.52
2018-06-04T03:37:45.014Z,83.20
2018-06-04T03:40:13.585Z,83.19
2018-06-04T03:42:42.246Z,83.63
2018-06-04T03:45:10.879Z,83.36
2018-06-04T03:47:39.480Z,83.51
2018-06-04T03:50:08.209Z,82.95
2018-06-04T03:52:36.905Z,83.43
2018-06-04T03:55:06.506Z,83.67
2018-06-04T03:57:35.687Z,83.71
2018-06-04T04:00:05.011Z,83.22
2018-06-04T04:02:33.602Z,83.37
2018-06-04T04:05:02.341Z,83.59
2018-06-04T04:07:30.926Z,83.32
2018-06-04T04:09:59.645Z,83.27
2018-06-04T04:12:28.435Z,83.56
2018-06-04T04:14:57.037Z,82.84
2018-06-04T04:17:25.647Z,82.74
2018-06-04T04:19:54.260Z,82.80
2018-06-04T04:22:22.875Z,83.18
2018-06-04T04:24:51.544Z,82.11
2018-06-04T04:27:20.207Z,81.00
2018-06-04T04:29:48.771Z,80.62
2018-06-04T04:32:17.373Z,79.67
2018-06-04T04:34:46.077Z,79.99
2018-06-04T04:37:14.689Z,80.40
2018-06-04T04:39:43.352Z,80.49
2018-06-04T04:42:12.009Z,81.25
2018-06-04T04:44:40.582Z,81.24
2018-06-04T04:47:09.167Z,81.33
2018-06-04T04:49:37.745Z,81.34
2018-06-04T04:52:06.342Z,81.33
2018-06-04T04:55:02.914Z,81.28
2018-06-04T04:57:31.605Z,81.39
2018-06-04T05:00:00.221Z,81.55
2018-06-04T05:02:28.973Z,80.98
2018-06-04T05:04:57.623Z,81.38
2018-06-04T05:07:26.223Z,81.39
2018-06-04T05:09:54.915Z,81.03
2018-06-04T05:12:23.628Z,81.40
2018-06-04T05:14:52.294Z,80.75
2018-06-04T05:17:21.024Z,80.58
2018-06-04T05:19:49.677Z,80.80
2018-06-04T05:22:18.394Z,81.03
2018-06-04T05:24:47.029Z,80.96
2018-06-04T05:27:15.682Z,80.60
2018-06-04T05:29:44.410Z,80.40
2018-06-04T05:32:13.215Z,80.38
2018-06-04T05:34:41.894Z,80.56
2018-06-04T05:37:10.492Z,80.26
2018-06-04T05:39:39.098Z,80.52
2018-06-04T05:42:07.736Z,79.89
2018-06-04T05:44:36.434Z,80.21
2018-06-04T05:47:05.138Z,79.49
2018-06-04T05:49:33.809Z,79.27
2018-06-04T05:52:02.491Z,79.24
2018-06-04T05:54:31.086Z,79.13
2018-06-04T05:56:59.745Z,78.84
2018-06-04T05:59:28.414Z,78.63
2018-06-04T06:01:57.071Z,78.96
2018-06-04T06:04:25.922Z,78.67
2018-06-04T06:06:58.694Z,78.75
2018-06-04T06:09:27.274Z,78.25
2018-06-04T06:11:55.962Z,78.13
2018-06-04T06:14:24.660Z,78.25
2018-06-04T06:16:53.217Z,78.16
2018-06-04T06:19:21.926Z,77.77
2018-06-04T06:21:50.540Z,77.55
2018-06-04T06:24:19.136Z,77.74
2018-06-04T06:26:47.888Z,77.08
2018-06-04T06:29:16.592Z,76.96
2018-06-04T06:31:45.149Z,76.85
2018-06-04T06:34:13.853Z,76.28
2018-06-04T06:36:42.526Z,76.34
2018-06-04T06:39:11.259Z,75.89
2018-06-04T06:41:39.862Z,75.70
2018-06-04T06:44:08.582Z,75.54
2018-06-04T06:46:37.170Z,76.09
2018-06-04T06:49:05.817Z,75.22
2018-06-04T06:51:34.675Z,75.95
2018-06-04T06:54:03.337Z,75.52
2018-06-04T06:56:32.021Z,75.11
2018-06-04T06:59:00.593Z,74.98
2018-06-04T07:01:29.336Z,74.83
2018-06-04T07:03:57.954Z,74.15
2018-06-04T07:06:26.562Z,74.67
2018-06-04T07:08:55.173Z,73.69
2018-06-04T07:11:23.790Z,73.82
2018-06-04T07:13:52.397Z,73.18
2018-06-04T07:16:20.977Z,73.38
2018-06-04T07:18:49.677Z,73.04
2018-06-04T07:21:18.241Z,73.02
2018-06-04T07:23:46.936Z,73.07
2018-06-04T07:26:15.524Z,73.08
2018-06-04T07:28:44.181Z,72.79
2018-06-04T07:31:12.797Z,72.14
2018-06-04T07:33:41.424Z,71.91
2018-06-04T07:36:11.142Z,71.92
2018-06-04T07:38:41.098Z,71.73
2018-06-04T07:41:09.704Z,71.71
2018-06-04T07:43:38.293Z,72.03
2018-06-04T07:46:17.013Z,72.11
2018-06-04T07:48:46.320Z,72.01
2018-06-04T07:51:14.932Z,71.32
2018-06-04T07:53:43.722Z,70.65
2018-06-04T07:56:12.287Z,69.53
2018-06-04T07:58:40.969Z,69.76
2018-06-04T08:01:09.861Z,69.51
2018-06-04T08:03:38.612Z,69.60
2018-06-04T08:06:07.264Z,69.23
2018-06-04T08:08:35.879Z,70.13
2018-06-04T08:11:04.537Z,69.23
2018-06-04T08:13:33.237Z,68.96
2018-06-04T08:16:01.952Z,68.70
2018-06-04T08:18:30.569Z,69.22
2018-06-04T08:20:59.174Z,68.88
2018-06-04T08:23:27.806Z,68.55
2018-06-04T08:25:56.483Z,67.50
2018-06-04T08:28:25.265Z,67.33
2018-06-04T08:30:53.842Z,68.06
2018-06-04T08:33:23.179Z,67.63
2018-06-04T08:35:51.815Z,68.52
2018-06-04T08:38:20.499Z,69.37
2018-06-04T08:40:49.118Z,69.60
2018-06-04T08:43:17.717Z,69.42
2018-06-04T08:45:46.518Z,69.63
2018-06-04T08:48:15.253Z,68.75
2018-06-04T08:50:43.941Z,68.37
2018-06-04T08:53:12.538Z,68.33
2018-06-04T08:55:41.133Z,67.50
2018-06-04T08:58:09.712Z,68.64
2018-06-04T09:00:38.388Z,68.29
2018-06-04T09:03:07.062Z,68.04
2018-06-04T09:05:35.749Z,67.90
2018-06-04T09:08:09.088Z,66.69
2018-06-04T09:10:37.827Z,66.50
2018-06-04T09:13:06.962Z,65.74
2018-06-04T09:15:35.625Z,67.45
2018-06-04T09:18:04.277Z,66.93
2018-06-04T09:20:32.972Z,66.48
2018-06-04T09:23:01.677Z,65.41
2018-06-04T09:25:30.253Z,64.19
2018-06-04T09:27:58.946Z,64.53
2018-06-04T09:30:27.628Z,63.74
2018-06-04T09:32:56.317Z,63.40
2018-06-04T09:35:24.898Z,64.30
2018-06-04T09:37:53.589Z,63.88
2018-06-04T09:40:22.263Z,64.31
2018-06-04T09:42:50.961Z,64.63
2018-06-04T09:45:19.649Z,65.08
2018-06-04T09:47:48.364Z,65.38
2018-06-04T09:50:16.971Z,64.96
2018-06-04T09:53:21.153Z,63.38
2018-06-04T09:55:49.835Z,63.00
2018-06-04T09:58:18.498Z,62.47
2018-06-04T10:00:47.236Z,62.09
2018-06-04T10:03:23.890Z,61.64
2018-06-04T10:05:52.547Z,60.31
2018-06-04T10:08:22.251Z,59.61
2018-06-04T10:10:50.956Z,59.37
2018-06-04T10:13:19.650Z,59.20
2018-06-04T10:15:48.349Z,58.73
2018-06-04T10:18:17.114Z,59.49
2018-06-04T10:20:45.776Z,59.22
2018-06-04T10:23:14.482Z,59.51
2018-06-04T10:25:43.194Z,59.70
2018-06-04T10:28:11.825Z,60.20
2018-06-04T10:30:40.448Z,60.31
2018-06-04T10:33:09.855Z,59.14
2018-06-04T10:35:38.531Z,57.80
2018-06-04T10:38:07.134Z,57.38
2018-06-04T10:40:35.824Z,56.31
2018-06-04T10:43:04.422Z,56.39
2018-06-04T10:45:33.019Z,56.66
2018-06-04T10:48:01.662Z,55.63
2018-06-04T10:50:30.385Z,55.27
2018-06-04T10:53:00.027Z,54.01
2018-06-04T10:55:28.686Z,53.01
2018-06-04T10:57:58.146Z,53.93
2018-06-04T11:00:26.847Z,53.51
2018-06-04T11:02:55.498Z,53.49
2018-06-04T11:05:24.190Z,54.13
2018-06-04T11:07:52.904Z,54.32
2018-06-04T11:10:22.197Z,53.39
2018-06-04T11:12:50.861Z,53.19
2018-06-04T11:15:19.529Z,52.62
2018-06-04T11:17:48.374Z,53.58
2018-06-04T11:20:17.134Z,53.53
2018-06-04T11:22:45.838Z,53.43
2018-06-04T11:25:15.671Z,52.27
2018-06-04T11:27:44.276Z,51.78
2018-06-04T11:30:12.926Z,50.14
2018-06-04T11:32:41.512Z,50.12
2018-06-04T11:35:10.100Z,48.96
2018-06-04T11:37:38.713Z,48.11
2018-06-04T11:40:07.431Z,47.33
2018-06-04T11:42:36.027Z,47.01
2018-06-04T11:45:04.831Z,46.31
2018-06-04T11:47:33.490Z,45.66
2018-06-04T11:50:02.240Z,44.83
2018-06-04T11:52:30.855Z,44.72
2018-06-04T11:54:59.530Z,44.03
2018-06-04T11:57:28.232Z,42.24
2018-06-04T11:59:56.839Z,42.16
2018-06-04T12:02:25.515Z,42.85
2018-06-04T12:04:54.137Z,41.96
2018-06-04T12:07:22.778Z,41.04
2018-06-04T12:09:51.460Z,41.03
2018-06-04T12:12:20.256Z,40.22
2018-06-04T12:14:48.861Z,39.46
2018-06-04T12:17:17.498Z,39.55
2018-06-04T12:19:46.219Z,39.82
2018-06-04T12:22:14.869Z,39.65
2018-06-04T12:24:43.444Z,38.92
2018-06-04T12:27:12.168Z,38.77
2018-06-04T12:29:40.819Z,37.57
2018-06-04T12:32:09.414Z,37.58
2018-06-04T12:34:38.122Z,37.30
2018-06-04T12:37:06.770Z,36.61
2018-06-04T12:39:35.352Z,38.00
2018-06-04T12:42:03.987Z,39.82
2018-06-04T12:44:32.570Z,39.52
2018-06-04T12:47:01.229Z,38.89
2018-06-04T12:49:29.870Z,38.33
2018-06-04T12:51:58.612Z,37.29
2018-06-04T12:54:27.317Z,36.88
2018-06-04T12:56:55.934Z,36.61
2018-06-04T12:59:24.598Z,36.76
2018-06-04T13:01:53.257Z,37.78
2018-06-04T13:04:21.926Z,37.88
2018-06-04T13:06:50.629Z,37.36
2018-06-04T13:09:19.284Z,37.98
2018-06-04T13:11:47.990Z,38.34
2018-06-04T13:14:16.650Z,37.92
2018-06-04T13:16:45.440Z,37.67
2018-06-04T13:19:14.149Z,38.17
2018-06-04T13:21:42.843Z,38.94
2018-06-04T13:24:11.444Z,37.44
2018-06-04T13:26:40.244Z,37.28
2018-06-04T13:29:08.833Z,36.84
2018-06-04T13:31:38.203Z,37.21
2018-06-04T13:34:07.191Z,38.16
2018-06-04T13:36:35.872Z,37.79
2018-06-04T13:39:06.957Z,37.90
2018-06-04T13:41:35.615Z,39.13
2018-06-04T13:44:07.677Z,39.28
2018-06-04T13:46:36.313Z,38.46
2018-06-04T13:49:04.923Z,38.97
2018-06-04T13:51:33.622Z,39.05
2018-06-04T13:54:02.297Z,39.73
2018-06-04T13:56:30.934Z,41.21
2018-06-04T13:58:59.619Z,42.35
2018-06-04T14:01:28.328Z,42.18
2018-06-04T14:03:57.035Z,41.58
2018-06-04T14:06:25.638Z,41.08
2018-06-04T14:08:54.304Z,39.99
2018-06-04T14:11:23.532Z,40.76
2018-06-04T14:13:52.185Z,39.71
2018-06-04T14:16:20.807Z,40.41
2018-06-04T14:18:49.483Z,42.16
2018-06-04T14:21:19.309Z,43.65
2018-06-04T14:23:48.480Z,44.01
2018-06-04T14:26:17.200Z,42.94
2018-06-04T14:28:46.453Z,43.43
2018-06-04T14:31:15.748Z,44.72
2018-06-04T14:33:44.435Z,45.67
2018-06-04T14:36:13.140Z,46.91
2018-06-04T14:38:45.920Z,47.66
2018-06-04T14:41:14.574Z,46.14
2018-06-04T14:43:43.372Z,46.67
2018-06-04T14:46:12.082Z,47.45
2018-06-04T14:48:41.494Z,47.64
2018-06-04T14:51:10.870Z,48.44
2018-06-04T14:53:40.469Z,48.71
2018-06-04T14:56:09.180Z,48.94
2018-06-04T14:58:37.887Z,51.13
2018-06-04T15:01:06.734Z,52.56
2018-06-04T15:03:35.424Z,53.16
2018-06-04T15:06:04.120Z,53.40
2018-06-04T15:08:32.716Z,53.40
2018-06-04T15:11:01.929Z,52.78
2018-06-04T15:13:51.768Z,51.71
2018-06-04T15:16:20.620Z,52.28
2018-06-04T15:18:49.264Z,52.40
2018-06-04T15:21:17.985Z,53.82
2018-06-04T15:23:46.623Z,52.66
2018-06-04T15:26:15.261Z,51.96
2018-06-04T15:28:43.945Z,52.77
2018-06-04T15:31:12.584Z,52.81
2018-06-04T15:33:41.367Z,52.09
2018-06-04T15:36:10.068Z,51.22
2018-06-04T15:38:38.669Z,50.93
2018-06-04T15:41:11.331Z,50.22
2018-06-04T15:43:40.008Z,50.17
2018-06-04T15:46:08.676Z,49.65
2018-06-04T15:48:37.836Z,48.86
2018-06-04T15:51:06.907Z,49.11
2018-06-04T15:53:35.483Z,49.19
2018-06-04T15:56:04.185Z,49.60
2018-06-04T15:58:32.853Z,49.72
2018-06-04T16:01:03.625Z,49.73
2018-06-04T16:03:32.629Z,50.22
2018-06-04T16:06:04.081Z,49.52
2018-06-04T16:08:34.636Z,49.36
2018-06-04T16:11:03.339Z,49.33
2018-06-04T16:13:31.948Z,49.43
2018-06-04T16:16:01.233Z,49.37
2018-06-04T16:18:29.908Z,49.21
2018-06-04T16:20:59.590Z,49.68
2018-06-04T16:23:28.230Z,50.31
2018-06-04T16:25:56.902Z,49.54
2018-06-04T16:28:25.505Z,49.36
2018-06-04T16:30:56.780Z,49.56
2018-06-04T16:33:25.389Z,49.92
2018-06-04T16:35:54.563Z,50.25
2018-06-04T16:38:23.410Z,50.79
2018-06-04T16:40:52.065Z,50.58
2018-06-04T16:43:20.733Z,50.37
2018-06-04T16:45:49.576Z,50.09
2018-06-04T16:48:18.340Z,50.33
2018-06-04T16:50:47.160Z,50.44
2018-06-04T16:53:15.796Z,49.99
2018-06-04T16:55:45.259Z,50.32
2018-06-04T16:58:13.999Z,50.03
2018-06-04T17:00:42.710Z,50.93
2018-06-04T17:03:11.326Z,50.96
2018-06-04T17:05:39.936Z,51.28
2018-06-04T17:08:08.702Z,51.08
2018-06-04T17:10:38.660Z,50.41
2018-06-04T17:13:07.470Z,51.80
2018-06-04T17:15:36.098Z,51.64
2018-06-04T17:18:05.403Z,51.63
2018-06-04T17:20:34.126Z,51.62
2018-06-04T17:23:02.815Z,52.34
2018-06-04T17:25:31.705Z,52.11
2018-06-04T17:28:00.293Z,51.69
2018-06-04T17:30:28.998Z,51.90
2018-06-04T17:32:57.711Z,52.21
2018-06-04T17:35:26.314Z,52.93
2018-06-04T17:37:55.124Z,52.40
2018-06-04T17:40:26.998Z,53.07
2018-06-04T17:42:55.689Z,53.60
2018-06-04T17:45:24.470Z,54.06
2018-06-04T17:47:57.738Z,53.77
2018-06-04T17:50:26.423Z,54.44
2018-06-04T17:52:55.231Z,54.08
2018-06-04T17:55:23.842Z,53.54
2018-06-04T17:57:53.757Z,54.27
2018-06-04T18:00:23.244Z,54.97
2018-06-04T18:02:52.739Z,56.03
2018-06-04T18:05:21.423Z,55.70
2018-06-04T18:07:50.083Z,56.30
2018-06-04T18:10:18.899Z,57.32
2018-06-04T18:12:47.928Z,57.55
2018-06-04T18:15:16.780Z,57.00
2018-06-04T18:17:45.485Z,56.72
2018-06-04T18:20:15.405Z,56.99
2018-06-04T18:22:44.517Z,58.13
2018-06-04T18:25:13.272Z,58.28
2018-06-04T18:27:42.202Z,58.89
2018-06-04T18:30:24.053Z,59.89
2018-06-04T18:32:52.671Z,59.46
2018-06-04T18:35:21.681Z,59.91
2018-06-04T18:38:03.133Z,59.85
2018-06-04T18:40:31.904Z,59.61
2018-06-04T18:43:00.698Z,59.67
2018-06-04T18:45:29.414Z,59.89
2018-06-04T18:47:58.317Z,59.36
2018-06-04T18:50:27.117Z,59.29
2018-06-04T18:52:55.797Z,59.62
2018-06-04T18:55:24.414Z,59.20
2018-06-04T18:57:53.324Z,59.25
2018-06-04T19:00:23.971Z,60.05
2018-06-04T19:02:52.898Z,60.10
2018-06-04T19:05:21.676Z,60.39
2018-06-04T19:07:50.652Z,60.84
2018-06-04T19:10:20.008Z,60.78
2018-06-04T19:12:49.703Z,60.81
2018-06-04T19:15:18.670Z,61.28
2018-06-04T19:17:47.962Z,61.75
2018-06-04T19:20:17.426Z,62.31
2018-06-04T19:22:46.283Z,62.07
2018-06-04T19:25:15.359Z,62.61
2018-06-04T19:27:45.076Z,63.37
2018-06-04T19:30:14.125Z,63.36
2018-06-04T19:32:44.215Z,63.69
2018-06-04T19:35:13.135Z,64.08
2018-06-04T19:37:41.763Z,63.77
2018-06-04T19:40:14.541Z,64.53
2018-06-04T19:42:43.312Z,64.89
2018-06-04T19:45:12.845Z,65.22
2018-06-04T19:47:42.561Z,65.61
2018-06-04T19:50:11.262Z,65.53
2018-06-04T19:52:40.043Z,65.85
2018-06-04T19:55:08.654Z,66.55
2018-06-04T19:57:37.821Z,66.63
2018-06-04T20:00:06.630Z,67.02
2018-06-04T20:02:36.979Z,66.90
2018-06-04T20:05:05.734Z,67.67
2018-06-04T20:07:35.317Z,67.54
2018-06-04T20:10:04.234Z,67.66
2018-06-04T20:12:32.877Z,67.71
2018-06-04T20:15:01.802Z,68.43
2018-06-04T20:17:31.693Z,68.32
2018-06-04T20:20:00.496Z,69.16
2018-06-04T20:22:29.352Z,68.94
2018-06-04T20:24:58.194Z,69.03
2018-06-04T20:27:26.944Z,68.95
2018-06-04T20:29:56.671Z,68.90
2018-06-04T20:32:26.071Z,69.09
2018-06-04T20:34:54.717Z,69.45
2018-06-04T20:37:23.976Z,69.68
2018-06-04T20:39:52.661Z,70.23
2018-06-04T20:42:21.534Z,70.17
2018-06-04T20:44:50.586Z,70.32
2018-06-04T20:47:19.382Z,70.96
2018-06-04T20:49:48.192Z,71.17
2018-06-04T20:52:16.965Z,71.20
2018-06-04T20:54:49.247Z,71.41
2018-06-04T20:57:17.906Z,71.36
2018-06-04T20:59:46.670Z,71.32
2018-06-04T21:02:15.512Z,71.32
2018-06-04T21:04:44.242Z,71.56
2018-06-04T21:07:13.997Z,71.60
2018-06-04T21:09:43.088Z,71.70
2018-06-04T21:12:11.967Z,71.95
2018-06-04T21:14:41.117Z,72.17
2018-06-04T21:17:09.985Z,72.35
2018-06-04T21:19:39.065Z,72.30
2018-06-04T21:22:08.023Z,72.22
2018-06-04T21:24:36.972Z,72.02
2018-06-04T21:27:05.800Z,72.18
2018-06-04T21:29:36.014Z,72.63
2018-06-04T21:32:04.768Z,72.58
2018-06-04T21:34:33.542Z,73.00
2018-06-04T21:37:02.175Z,73.28
2018-06-04T21:39:30.986Z,72.98
2018-06-04T21:42:00.630Z,73.07
2018-06-04T21:44:29.416Z,73.76
2018-06-04T21:46:58.602Z,73.79
2018-06-04T21:49:34.588Z,73.65
2018-06-04T21:52:03.549Z,73.26
2018-06-04T21:54:32.901Z,73.39
2018-06-04T21:57:02.222Z,73.89
2018-06-04T21:59:31.790Z,73.95
2018-06-04T22:02:00.558Z,74.12
2018-06-04T22:04:29.205Z,73.96
2018-06-04T22:06:58.586Z,74.17
2018-06-04T22:09:28.014Z,74.77
2018-06-04T22:11:56.775Z,74.80
2018-06-04T22:14:25.661Z,75.10
2018-06-04T22:16:54.631Z,74.98
2018-06-04T22:19:23.503Z,75.17
2018-06-04T22:21:52.100Z,75.36
2018-06-04T22:24:20.791Z,75.84
2018-06-04T22:26:49.398Z,75.96
2018-06-04T22:29:17.990Z,76.06
2018-06-04T22:31:46.684Z,75.97
2018-06-04T22:34:17.484Z,75.97
2018-06-04T22:36:46.162Z,76.19
2018-06-04T22:39:14.874Z,76.42
2018-06-04T22:41:43.541Z,76.28
2018-06-04T22:44:12.870Z,76.05
2018-06-04T22:46:41.534Z,76.57
2018-06-04T22:49:10.226Z,76.48
2018-06-04T22:51:38.919Z,76.17
2018-06-04T22:54:07.606Z,76.41
2018-06-04T22:56:36.974Z,76.53
2018-06-04T22:59:07.337Z,77.02
2018-06-04T23:01:35.917Z,76.63
2018-06-04T23:04:04.579Z,77.21
2018-06-04T23:06:33.256Z,76.89
2018-06-04T23:09:01.954Z,76.85
2018-06-04T23:11:30.597Z,77.00
2018-06-04T23:13:59.187Z,77.02
2018-06-04T23:16:27.789Z,77.13
2018-06-04T23:18:56.501Z,77.33
2018-06-04T23:21:25.178Z,77.93
2018-06-04T23:23:53.900Z,77.90
2018-06-04T23:26:23.170Z,77.72
2018-06-04T23:28:51.969Z,77.89
2018-06-04T23:31:20.649Z,78.04
2018-06-04T23:33:49.323Z,77.57
2018-06-04T23:36:18.013Z,78.13
2018-06-04T23:38:46.693Z,78.28
2018-06-04T23:41:15.293Z,78.50
2018-06-04T23:43:43.961Z,78.54
2018-06-04T23:46:12.656Z,78.84
2018-06-04T23:48:41.254Z,78.42
2018-06-04T23:51:09.933Z,78.33
2018-06-04T23:53:38.629Z,78.42
2018-06-04T23:56:07.297Z,79.00
2018-06-04T23:58:35.995Z,79.29
